地図

経路データ

SID SEASON NUMBER BASIN SUBBASIN NAME ISO_TIME NATURE LAT LON WMO_WIND WMO_PRES WMO_AGENCY TRACK_TYPE DIST2LAND LANDFALL IFLAG USA_AGENCY USA_ATCF_ID USA_LAT USA_LON USA_RECORD USA_STATUS USA_WIND USA_PRES USA_SSHS USA_R34_NE USA_R34_SE USA_R34_SW USA_R34_NW USA_R50_NE USA_R50_SE USA_R50_SW USA_R50_NW USA_R64_NE USA_R64_SE USA_R64_SW USA_R64_NW USA_POCI USA_ROCI USA_RMW USA_EYE TOKYO_LAT TOKYO_LON TOKYO_GRADE TOKYO_WIND TOKYO_PRES TOKYO_R50_DIR TOKYO_R50_LONG TOKYO_R50_SHORT TOKYO_R30_DIR TOKYO_R30_LONG TOKYO_R30_SHORT TOKYO_LAND CMA_LAT CMA_LON CMA_CAT CMA_WIND CMA_PRES HKO_LAT HKO_LON HKO_CAT HKO_WIND HKO_PRES NEWDELHI_LAT NEWDELHI_LON NEWDELHI_GRADE NEWDELHI_WIND NEWDELHI_PRES NEWDELHI_CI NEWDELHI_DP NEWDELHI_POCI REUNION_LAT REUNION_LON REUNION_TYPE REUNION_WIND REUNION_PRES REUNION_TNUM REUNION_CI REUNION_RMW REUNION_R34_NE REUNION_R34_SE REUNION_R34_SW REUNION_R34_NW REUNION_R50_NE REUNION_R50_SE REUNION_R50_SW REUNION_R50_NW REUNION_R64_NE REUNION_R64_SE REUNION_R64_SW REUNION_R64_NW BOM_LAT BOM_LON BOM_TYPE BOM_WIND BOM_PRES BOM_TNUM BOM_CI BOM_RMW BOM_R34_NE BOM_R34_SE BOM_R34_SW BOM_R34_NW BOM_R50_NE BOM_R50_SE BOM_R50_SW BOM_R50_NW BOM_R64_NE BOM_R64_SE BOM_R64_SW BOM_R64_NW BOM_ROCI BOM_POCI BOM_EYE BOM_POS_METHOD BOM_PRES_METHOD NADI_LAT NADI_LON NADI_CAT NADI_WIND NADI_PRES WELLINGTON_LAT WELLINGTON_LON WELLINGTON_WIND WELLINGTON_PRES DS824_LAT DS824_LON DS824_STAGE DS824_WIND DS824_PRES TD9636_LAT TD9636_LON TD9636_STAGE TD9636_WIND TD9636_PRES TD9635_LAT TD9635_LON TD9635_WIND TD9635_PRES TD9635_ROCI NEUMANN_LAT NEUMANN_LON NEUMANN_CLASS NEUMANN_WIND NEUMANN_PRES MLC_LAT MLC_LON MLC_CLASS MLC_WIND MLC_PRES USA_GUST BOM_GUST BOM_GUST_PER REUNION_GUST REUNION_GUST_PER USA_SEAHGT USA_SEARAD_NE USA_SEARAD_SE USA_SEARAD_SW USA_SEARAD_NW STORM_SPEED STORM_DIR
1967174N15258 1967 40 EP MM CARLOTTA 1967-06-23 00:00:00 TS 14.9000 -102.400 45 hurdat_epa main 302 290 O________OO___ hurdat_epa EP031967 14.9000 -102.400 TS 45 0 14.9000 -102.400 TC 45 14.9000 -102.400 2 8 316
1967174N15258 1967 40 EP MM CARLOTTA 1967-06-23 03:00:00 TS 15.2057 -102.702 main 290 278 P________PP___ EP031967 15.2101 -102.700 TS 45 0 15.2101 -102.700 TC 45 15.1881 -102.710 2 8 316
1967174N15258 1967 40 EP MM CARLOTTA 1967-06-23 06:00:00 TS 15.4941 -103.003 45 hurdat_epa main 278 264 O________OP___ hurdat_epa EP031967 15.5000 -103.000 TS 45 0 15.5000 -103.000 TC 45 15.4707 -103.016 2 8 314
1967174N15258 1967 40 EP MM CARLOTTA 1967-06-23 09:00:00 TS 15.7546 -103.303 main 257 246 P________PP___ EP031967 15.7575 -103.300 TS 45 0 15.7575 -103.300 TC 45 15.7430 -103.314 2 8 311
1967174N15258 1967 40 EP MM CARLOTTA 1967-06-23 12:00:00 TS 16.0000 -103.600 45 hurdat_epa main 246 232 O________OO___ hurdat_epa EP031967 16.0000 -103.600 TS 45 0 16.0000 -103.600 TC 45 16.0000 -103.600 2 8 311
1967174N15258 1967 40 EP MM CARLOTTA 1967-06-23 15:00:00 TS 16.2480 -103.889 main 235 211 P________PP___ EP031967 16.2499 -103.893 TS 45 0 16.2499 -103.893 TC 45 16.2403 -103.874 2 8 311
1967174N15258 1967 40 EP MM CARLOTTA 1967-06-23 18:00:00 TS 16.4953 -104.192 45 hurdat_epa main 214 202 O________OP___ hurdat_epa EP031967 16.5000 -104.200 TS 45 0 16.5000 -104.200 TC 45 16.4764 -104.162 2 8 309
1967174N15258 1967 40 EP MM CARLOTTA 1967-06-23 21:00:00 TS 16.7327 -104.503 main 208 198 P________PP___ EP031967 16.7347 -104.505 TS 55 0 16.7347 -104.505 TC 55 16.7244 -104.493 2 8 307
1967174N15258 1967 40 EP MM CARLOTTA 1967-06-24 00:00:00 TS 17.0000 -104.900 65 hurdat_epa main 207 207 O________OO___ hurdat_epa EP031967 17.0000 -104.900 HU 65 1 17.0000 -104.900 TC 65 17.0000 -104.900 3 11 303
1967174N15258 1967 40 EP MM CARLOTTA 1967-06-24 03:00:00 TS 17.3299 -105.451 main 225 210 P________PP___ EP031967 17.3351 -105.462 HU 70 1 17.3351 -105.462 TC 70 17.3091 -105.405 3 13 302
1967174N15258 1967 40 EP MM CARLOTTA 1967-06-24 06:00:00 TS 17.6895 -106.078 75 hurdat_epa main 216 215 O________OP___ hurdat_epa EP031967 17.7000 -106.100 HU 75 1 17.7000 -106.100 TC 75 17.6475 -105.988 3 14 301
1967174N15258 1967 40 EP MM CARLOTTA 1967-06-24 09:00:00 TS 18.0301 -106.674 main 237 230 P________PP___ EP031967 18.0347 -106.686 HU 75 1 18.0347 -106.686 TC 75 18.0120 -106.627 3 14 301
1967174N15258 1967 40 EP MM CARLOTTA 1967-06-24 12:00:00 TS 18.4000 -107.300 75 hurdat_epa main 255 255 O________OO___ hurdat_epa EP031967 18.4000 -107.300 HU 75 1 18.4000 -107.300 TC 75 18.4000 -107.300 4 15 303
1967174N15258 1967 40 EP MM CARLOTTA 1967-06-24 15:00:00 TS 18.8404 -107.990 main 294 289 P________PP___ EP031967 18.8424 -107.985 HU 75 1 18.8424 -107.985 TC 75 18.8325 -108.011 4 16 304
1967174N15258 1967 40 EP MM CARLOTTA 1967-06-24 18:00:00 TS 19.2962 -108.709 75 hurdat_epa main 337 337 O________OP___ hurdat_epa EP031967 19.3000 -108.700 HU 75 1 19.3000 -108.700 TC 75 19.2811 -108.743 4 16 303
1967174N15258 1967 40 EP MM CARLOTTA 1967-06-24 21:00:00 TS 19.7269 -109.441 main 360 313 P________PP___ EP031967 19.7301 -109.437 HU 75 1 19.7301 -109.437 TC 75 19.7139 -109.454 4 15 302
1967174N15258 1967 40 EP MM CARLOTTA 1967-06-25 00:00:00 TS 20.1000 -110.100 75 hurdat_epa main 313 284 O________OO___ hurdat_epa EP031967 20.1000 -110.100 HU 75 1 20.1000 -110.100 TC 75 20.1000 -110.100 2 13 301
1967174N15258 1967 40 EP MM CARLOTTA 1967-06-25 03:00:00 TS 20.3798 -110.597 main 286 273 P________PP___ EP031967 20.3720 -110.588 HU 75 1 20.3720 -110.588 TC 75 20.4111 -110.632 2 10 301
1967174N15258 1967 40 EP MM CARLOTTA 1967-06-25 06:00:00 TS 20.6147 -111.018 75 hurdat_epa main 277 266 O________OP___ hurdat_epa EP031967 20.6000 -111.000 HU 75 1 20.6000 -111.000 TC 75 20.6733 -111.092 2 10 301
1967174N15258 1967 40 EP MM CARLOTTA 1967-06-25 09:00:00 TS 20.8657 -111.467 main 271 268 P________PP___ EP031967 20.8574 -111.458 HU 75 1 20.8574 -111.458 TC 75 20.8989 -111.506 2 10 301
1967174N15258 1967 40 EP MM CARLOTTA 1967-06-25 12:00:00 TS 21.1000 -111.900 75 hurdat_epa main 280 280 O________OO___ hurdat_epa EP031967 21.1000 -111.900 HU 75 1 21.1000 -111.900 TC 75 21.1000 -111.900 2 9 300
1967174N15258 1967 40 EP MM CARLOTTA 1967-06-25 15:00:00 TS 21.3128 -112.312 main 296 296 P________PP___ EP031967 21.3148 -112.308 HU 60 0 21.3148 -112.308 TC 60 21.3044 -112.327 2 9 298
1967174N15258 1967 40 EP MM CARLOTTA 1967-06-25 18:00:00 TS 21.4974 -112.708 45 hurdat_epa main 318 318 O________OP___ hurdat_epa EP031967 21.5000 -112.700 TS 45 0 21.5000 -112.700 TC 45 21.4872 -112.738 2 8 295
1967174N15258 1967 40 EP MM CARLOTTA 1967-06-25 21:00:00 TS 21.6562 -113.112 main 337 337 P________PP___ EP031967 21.6575 -113.108 TS 45 0 21.6575 -113.108 TC 45 21.6514 -113.130 2 8 292
1967174N15258 1967 40 EP MM CARLOTTA 1967-06-26 00:00:00 TS 21.8000 -113.500 45 hurdat_epa main 348 343 O________OO___ hurdat_epa EP031967 21.8000 -113.500 TS 45 0 21.8000 -113.500 TC 45 21.8000 -113.500 2 8 293
1967174N15258 1967 40 EP MM CARLOTTA 1967-06-26 03:00:00 TS 21.9532 -113.861 main 352 352 P________PP___ EP031967 21.9574 -113.865 TS 45 0 21.9574 -113.865 TC 45 21.9362 -113.847 2 7 294
1967174N15258 1967 40 EP MM CARLOTTA 1967-06-26 06:00:00 TS 22.0926 -114.195 45 hurdat_epa main 360 360 O________OP___ hurdat_epa EP031967 22.1000 -114.200 TS 45 0 22.1000 -114.200 TC 45 22.0629 -114.175 2 6 293
1967174N15258 1967 40 EP MM CARLOTTA 1967-06-26 09:00:00 TS 22.2047 -114.504 main 371 371 P________PP___ EP031967 22.2101 -114.507 TS 45 0 22.2101 -114.507 TC 45 22.1832 -114.490 2 6 290
1967174N15258 1967 40 EP MM CARLOTTA 1967-06-26 12:00:00 TS 22.3000 -114.800 45 hurdat_epa main 384 O________OO___ hurdat_epa EP031967 22.3000 -114.800 TS 45 0 22.3000 -114.800 TC 45 22.3000 -114.800 2 6 289

IBTrACS Databaseについて

本データベースは、米国NOAAが公開する1842年以降の世界の熱帯低気圧のベストトラックデータアーカイブInternational Best Track Archive for Climate Stewardship (IBTrACS)を、ウェブで閲覧しやすい形式に変換したものです。

最終更新日:2021-11-26